Time;durP1;ratioP1;P1;durP2;ratioP2;P2;SDS_P1;SDS_P2;PMS_P1;PMS_P2;Temp;Humidity;BMP_temperature;BMP_pressure;BME280_temperature;BME280_humidity;BME280_pressure;Samples;Min_cycle;Max_cycle;Signal;HPM_P1;HPM_P2
2021/07/16 00:00:42;;;;;;;3.92;3.08;;;;;;;;;;5095476;28;20295;-64
2021/07/16 00:03:10;;;;;;;5.97;3.00;;;;;;;;;;5095114;28;20269;-64
2021/07/16 00:05:38;;;;;;;3.17;2.95;;;;;;;;;;5095530;28;20196;-64
2021/07/16 00:08:07;;;;;;;3.47;2.92;;;;;;;;;;5094911;28;20291;-64
2021/07/16 00:10:35;;;;;;;2.78;2.50;;;;;;;;;;5094157;28;20656;-64
2021/07/16 00:13:06;;;;;;;3.00;2.80;;;;;;;;;;5095184;28;20206;-64
2021/07/16 00:15:34;;;;;;;5.22;3.20;;;;;;;;;;5095000;28;20208;-64
2021/07/16 00:18:03;;;;;;;3.38;3.08;;;;;;;;;;5093665;28;20200;-65
2021/07/16 00:20:31;;;;;;;3.28;2.97;;;;;;;;;;5093781;28;20296;-66
2021/07/16 00:22:59;;;;;;;4.15;2.78;;;;;;;;;;5093501;28;20196;-63
2021/07/16 00:25:27;;;;;;;3.38;3.13;;;;;;;;;;5093843;28;20199;-65
2021/07/16 00:27:55;;;;;;;3.40;3.08;;;;;;;;;;5094258;28;20294;-65
2021/07/16 00:30:25;;;;;;;4.75;3.15;;;;;;;;;;5094632;28;20206;-64
2021/07/16 00:32:54;;;;;;;3.35;2.90;;;;;;;;;;5095394;28;20216;-63
2021/07/16 00:35:22;;;;;;;3.13;2.92;;;;;;;;;;5093472;28;20196;-64
2021/07/16 00:37:50;;;;;;;3.70;2.83;;;;;;;;;;5093423;28;20295;-64
2021/07/16 00:40:19;;;;;;;4.05;3.13;;;;;;;;;;5093270;28;20558;-64
2021/07/16 00:42:47;;;;;;;3.63;3.22;;;;;;;;;;5094834;28;20294;-64
2021/07/16 00:45:15;;;;;;;4.55;3.38;;;;;;;;;;5093708;28;20207;-63
2021/07/16 00:47:46;;;;;;;3.53;3.22;;;;;;;;;;5093549;28;20283;-64
2021/07/16 00:50:16;;;;;;;3.97;2.72;;;;;;;;;;5092995;28;20188;-63
2021/07/16 00:52:44;;;;;;;3.30;3.00;;;;;;;;;;5092734;28;20188;-65
2021/07/16 00:55:13;;;;;;;3.67;3.25;;;;;;;;;;5092995;28;20208;-64
2021/07/16 00:57:41;;;;;;;6.13;5.10;;;;;;;;;;5092882;28;20222;-64
2021/07/16 01:00:11;;;;;;;5.13;3.67;;;;;;;;;;5092570;28;20648;-63
2021/07/16 01:02:40;;;;;;;3.88;3.25;;;;;;;;;;5092409;28;20196;-63
2021/07/16 01:05:11;;;;;;;8.38;3.30;;;;;;;;;;5092649;28;20828;-64
2021/07/16 01:07:40;;;;;;;3.03;2.75;;;;;;;;;;5092963;28;20192;-64
2021/07/16 01:10:09;;;;;;;3.55;3.17;;;;;;;;;;5093625;28;20210;-64
2021/07/16 01:12:39;;;;;;;3.60;3.13;;;;;;;;;;5093200;28;20818;-63
2021/07/16 01:15:07;;;;;;;4.90;3.35;;;;;;;;;;5093288;28;20821;-64
2021/07/16 01:17:36;;;;;;;3.63;3.33;;;;;;;;;;5092762;28;20851;-64
2021/07/16 01:20:05;;;;;;;3.47;3.17;;;;;;;;;;5092885;28;20199;-66
2021/07/16 01:22:37;;;;;;;3.75;3.40;;;;;;;;;;5092361;28;20206;-64
2021/07/16 01:25:08;;;;;;;3.70;3.40;;;;;;;;;;5092331;28;20188;-63
2021/07/16 01:27:36;;;;;;;4.32;3.88;;;;;;;;;;5092413;28;20176;-63
2021/07/16 01:30:06;;;;;;;3.80;3.45;;;;;;;;;;5092526;28;20324;-65
2021/07/16 01:32:34;;;;;;;3.63;3.33;;;;;;;;;;5092410;28;20328;-65
2021/07/16 01:35:02;;;;;;;3.65;3.35;;;;;;;;;;5092194;28;20216;-63
2021/07/16 01:37:31;;;;;;;5.45;3.42;;;;;;;;;;5091904;28;20255;-65
2021/07/16 01:40:00;;;;;;;3.65;3.35;;;;;;;;;;5092352;28;20212;-64
2021/07/16 01:42:35;;;;;;;4.13;3.83;;;;;;;;;;5092406;28;20195;-64
2021/07/16 01:45:05;;;;;;;3.60;3.30;;;;;;;;;;5092264;28;20278;-64
2021/07/16 01:47:33;;;;;;;3.72;3.42;;;;;;;;;;5092000;28;20200;-62
2021/07/16 01:50:02;;;;;;;3.30;3.00;;;;;;;;;;5091989;28;20216;-64
2021/07/16 01:52:31;;;;;;;3.80;3.50;;;;;;;;;;5091809;28;20327;-64
2021/07/16 01:54:59;;;;;;;4.30;3.90;;;;;;;;;;5092161;28;20290;-63
2021/07/16 01:57:27;;;;;;;4.32;3.78;;;;;;;;;;5096402;28;20310;-63
2021/07/16 01:59:57;;;;;;;4.43;4.00;;;;;;;;;;5096391;28;20574;-64
2021/07/16 02:02:25;;;;;;;4.85;4.10;;;;;;;;;;5096021;28;20204;-63
2021/07/16 02:04:54;;;;;;;4.82;3.65;;;;;;;;;;5096038;28;20670;-64
2021/07/16 02:07:22;;;;;;;4.40;3.97;;;;;;;;;;5092694;28;20287;-63
2021/07/16 02:09:50;;;;;;;5.10;4.03;;;;;;;;;;5075620;28;20648;-64
2021/07/16 02:12:18;;;;;;;4.07;3.78;;;;;;;;;;5075959;28;20196;-64
2021/07/16 02:14:46;;;;;;;5.93;3.90;;;;;;;;;;5075886;28;20207;-64
2021/07/16 02:17:16;;;;;;;3.92;3.60;;;;;;;;;;5075618;28;20212;-64
2021/07/16 02:19:46;;;;;;;4.50;4.10;;;;;;;;;;5075638;28;20207;-64
2021/07/16 02:22:14;;;;;;;5.10;4.20;;;;;;;;;;5075152;28;20643;-65
2021/07/16 02:24:42;;;;;;;4.53;3.92;;;;;;;;;;5075632;28;20303;-64
2021/07/16 02:27:10;;;;;;;4.45;4.05;;;;;;;;;;5075594;28;20193;-64
2021/07/16 02:29:39;;;;;;;4.32;4.03;;;;;;;;;;5075666;28;20200;-64
2021/07/16 02:32:07;;;;;;;4.70;4.30;;;;;;;;;;5075452;28;20203;-64
2021/07/16 02:34:37;;;;;;;5.82;5.20;;;;;;;;;;5075295;28;20197;-64
2021/07/16 02:37:05;;;;;;;5.88;5.40;;;;;;;;;;5074367;28;20217;-63
2021/07/16 02:39:33;;;;;;;5.82;5.32;;;;;;;;;;5075409;28;20201;-63
2021/07/16 02:42:01;;;;;;;5.43;4.60;;;;;;;;;;5074953;28;20603;-63
2021/07/16 02:44:29;;;;;;;5.10;4.60;;;;;;;;;;5075237;28;20207;-64
2021/07/16 02:46:58;;;;;;;4.63;4.22;;;;;;;;;;5075225;28;20306;-64
2021/07/16 02:49:26;;;;;;;5.78;5.20;;;;;;;;;;5075137;28;20207;-63
2021/07/16 02:51:55;;;;;;;5.22;4.82;;;;;;;;;;5088974;28;20768;-64
2021/07/16 02:54:24;;;;;;;6.18;5.00;;;;;;;;;;5095386;28;20184;-64
2021/07/16 02:56:52;;;;;;;5.55;5.13;;;;;;;;;;5094901;28;20676;-65
2021/07/16 02:59:20;;;;;;;5.63;5.13;;;;;;;;;;5094942;28;20203;-64
2021/07/16 03:01:55;;;;;;;5.72;5.22;;;;;;;;;;5095204;28;20200;-63
2021/07/16 03:04:24;;;;;;;6.57;5.97;;;;;;;;;;5094810;28;20195;-63
2021/07/16 03:06:53;;;;;;;5.85;5.35;;;;;;;;;;5094223;28;20200;-65
2021/07/16 03:09:22;;;;;;;6.75;6.15;;;;;;;;;;5100380;28;20263;-63
2021/07/16 03:11:50;;;;;;;8.13;5.85;;;;;;;;;;5102447;28;20199;-64
2021/07/16 03:14:19;;;;;;;7.80;6.28;;;;;;;;;;5100208;28;20204;-65
2021/07/16 03:16:47;;;;;;;6.22;5.63;;;;;;;;;;5094947;28;20282;-65
2021/07/16 03:19:15;;;;;;;8.20;5.65;;;;;;;;;;5094754;28;20609;-64
2021/07/16 03:21:43;;;;;;;6.03;5.43;;;;;;;;;;5094448;28;20287;-65
2021/07/16 03:24:11;;;;;;;6.20;5.57;;;;;;;;;;5094871;28;20206;-65
2021/07/16 03:26:41;;;;;;;5.95;5.35;;;;;;;;;;5094736;28;20287;-64
2021/07/16 03:29:09;;;;;;;6.10;5.60;;;;;;;;;;5094453;28;20561;-64
2021/07/16 03:31:37;;;;;;;5.03;4.63;;;;;;;;;;5094622;28;20204;-64
2021/07/16 03:34:06;;;;;;;5.50;5.05;;;;;;;;;;5094257;28;20211;-63
2021/07/16 03:36:34;;;;;;;5.05;4.65;;;;;;;;;;5094326;28;20210;-63
2021/07/16 03:39:02;;;;;;;5.05;4.65;;;;;;;;;;5094516;28;20223;-64
2021/07/16 03:41:30;;;;;;;4.68;4.28;;;;;;;;;;5094441;28;20287;-64
2021/07/16 03:44:00;;;;;;;8.63;5.03;;;;;;;;;;5094498;28;20282;-64
2021/07/16 03:46:28;;;;;;;5.50;4.97;;;;;;;;;;5094168;28;20210;-64
2021/07/16 03:48:56;;;;;;;5.97;5.47;;;;;;;;;;5094276;28;20195;-63
2021/07/16 03:51:25;;;;;;;5.30;4.80;;;;;;;;;;5093677;28;20289;-64
2021/07/16 03:53:53;;;;;;;4.90;4.50;;;;;;;;;;5094305;28;20294;-64
2021/07/16 03:56:21;;;;;;;5.35;4.85;;;;;;;;;;5093988;28;20674;-63
2021/07/16 03:58:49;;;;;;;5.30;4.80;;;;;;;;;;5093796;28;20224;-63
2021/07/16 04:01:19;;;;;;;5.03;4.63;;;;;;;;;;5093967;28;20200;-64
2021/07/16 04:03:47;;;;;;;5.30;4.90;;;;;;;;;;5094004;28;20234;-64
2021/07/16 04:06:16;;;;;;;5.18;4.68;;;;;;;;;;5093404;28;20318;-64
2021/07/16 04:08:44;;;;;;;7.43;5.10;;;;;;;;;;5079030;28;20223;-64
2021/07/16 04:11:12;;;;;;;5.20;4.80;;;;;;;;;;5073253;28;20196;-63
2021/07/16 04:13:40;;;;;;;7.22;5.50;;;;;;;;;;5073442;28;20204;-64
2021/07/16 04:16:09;;;;;;;5.18;4.68;;;;;;;;;;5073519;28;20201;-63
2021/07/16 04:18:38;;;;;;;7.50;5.28;;;;;;;;;;5072372;28;20573;-64
2021/07/16 04:21:06;;;;;;;5.55;5.05;;;;;;;;;;5072520;28;20291;-64
2021/07/16 04:23:35;;;;;;;5.45;4.93;;;;;;;;;;5073987;28;20201;-64
2021/07/16 04:26:03;;;;;;;8.73;6.07;;;;;;;;;;5073720;28;20699;-64
2021/07/16 04:28:31;;;;;;;8.55;6.03;;;;;;;;;;5073657;28;20309;-64
2021/07/16 04:30:59;;;;;;;9.73;6.43;;;;;;;;;;5073773;28;20201;-64
2021/07/16 04:33:27;;;;;;;6.90;6.25;;;;;;;;;;5073821;28;20201;-63
2021/07/16 04:35:57;;;;;;;6.85;6.07;;;;;;;;;;5073291;28;20211;-65
2021/07/16 04:38:25;;;;;;;8.65;6.50;;;;;;;;;;5073582;28;20223;-64
2021/07/16 04:40:53;;;;;;;7.93;6.18;;;;;;;;;;5073435;28;20197;-64
2021/07/16 04:43:21;;;;;;;7.57;5.97;;;;;;;;;;5073664;28;20291;-64
2021/07/16 04:45:49;;;;;;;8.68;6.25;;;;;;;;;;5081220;28;20587;-64
2021/07/16 04:48:18;;;;;;;10.75;7.95;;;;;;;;;;5093483;28;20210;-63
2021/07/16 04:50:46;;;;;;;9.75;7.53;;;;;;;;;;5093381;28;20227;-65
2021/07/16 04:53:16;;;;;;;13.00;8.95;;;;;;;;;;5093457;28;20586;-64
2021/07/16 04:55:44;;;;;;;9.35;7.72;;;;;;;;;;5093445;28;20295;-63
2021/07/16 04:58:12;;;;;;;10.25;8.25;;;;;;;;;;5093472;28;20310;-63
2021/07/16 05:00:40;;;;;;;12.57;11.15;;;;;;;;;;5093508;28;20292;-63
2021/07/16 05:03:08;;;;;;;13.40;10.88;;;;;;;;;;5093397;28;20211;-63
2021/07/16 05:05:37;;;;;;;11.65;9.15;;;;;;;;;;5093236;28;20234;-64
2021/07/16 05:08:05;;;;;;;17.88;12.27;;;;;;;;;;5093109;28;20196;-64
2021/07/16 05:10:35;;;;;;;16.25;13.10;;;;;;;;;;5093491;28;20243;-64
2021/07/16 05:13:03;;;;;;;17.70;13.55;;;;;;;;;;5093556;28;20196;-64
2021/07/16 05:15:31;;;;;;;17.75;14.07;;;;;;;;;;5093376;28;20242;-63
2021/07/16 05:18:00;;;;;;;17.45;13.35;;;;;;;;;;5093312;28;20220;-64
2021/07/16 05:20:28;;;;;;;25.63;15.85;;;;;;;;;;5093260;28;20227;-64
2021/07/16 05:22:56;;;;;;;25.92;17.88;;;;;;;;;;5093130;28;20278;-63
2021/07/16 05:25:24;;;;;;;26.33;17.20;;;;;;;;;;5093244;28;20294;-65
2021/07/16 05:27:54;;;;;;;27.20;17.92;;;;;;;;;;5092956;28;20606;-64
2021/07/16 05:30:22;;;;;;;24.85;16.23;;;;;;;;;;5092829;28;20227;-63
2021/07/16 05:32:50;;;;;;;24.48;18.15;;;;;;;;;;5092815;28;20291;-63
2021/07/16 05:35:20;;;;;;;22.27;15.90;;;;;;;;;;5092692;28;20207;-64
2021/07/16 05:37:49;;;;;;;29.42;21.08;;;;;;;;;;5093069;28;20188;-64
2021/07/16 05:40:17;;;;;;;29.52;20.10;;;;;;;;;;5092539;28;20315;-65
2021/07/16 05:42:46;;;;;;;30.60;21.63;;;;;;;;;;5092521;28;20204;-64
2021/07/16 05:45:15;;;;;;;29.30;19.63;;;;;;;;;;5092133;28;20568;-65
2021/07/16 05:47:43;;;;;;;29.50;22.75;;;;;;;;;;5093059;28;20195;-64
2021/07/16 05:50:12;;;;;;;36.80;22.73;;;;;;;;;;5092658;28;20196;-64
2021/07/16 05:52:41;;;;;;;33.00;22.65;;;;;;;;;;5092842;28;20207;-64
2021/07/16 05:55:09;;;;;;;30.13;22.88;;;;;;;;;;5092577;28;20195;-65
2021/07/16 05:57:38;;;;;;;26.05;20.55;;;;;;;;;;5092796;28;20782;-64
2021/07/16 06:00:06;;;;;;;28.95;22.55;;;;;;;;;;5092340;28;20223;-65
2021/07/16 06:02:36;;;;;;;36.15;25.05;;;;;;;;;;5092159;28;20790;-63
2021/07/16 06:05:05;;;;;;;32.38;23.90;;;;;;;;;;5092593;28;20192;-64
2021/07/16 06:07:33;;;;;;;31.23;23.10;;;;;;;;;;5092333;28;20200;-65
2021/07/16 06:10:02;;;;;;;33.80;24.42;;;;;;;;;;5092401;28;20689;-64
2021/07/16 06:12:30;;;;;;;35.83;24.45;;;;;;;;;;5092326;28;20235;-65
2021/07/16 06:14:58;;;;;;;30.50;21.42;;;;;;;;;;5092678;28;20200;-64
2021/07/16 06:17:27;;;;;;;36.22;25.13;;;;;;;;;;5092527;28;20306;-64
2021/07/16 06:19:57;;;;;;;31.00;22.67;;;;;;;;;;5092493;28;20235;-64
2021/07/16 06:22:25;;;;;;;25.90;20.02;;;;;;;;;;5092012;28;20695;-64
2021/07/16 06:24:53;;;;;;;28.08;22.10;;;;;;;;;;5092377;28;20204;-63
2021/07/16 06:27:21;;;;;;;32.25;24.13;;;;;;;;;;5092555;28;20210;-64
2021/07/16 06:29:50;;;;;;;29.83;21.98;;;;;;;;;;5092589;28;20285;-64
2021/07/16 06:32:18;;;;;;;30.45;23.10;;;;;;;;;;5092151;28;20690;-64
2021/07/16 06:34:46;;;;;;;31.38;22.92;;;;;;;;;;5092135;28;20208;-64
2021/07/16 06:37:16;;;;;;;32.97;22.58;;;;;;;;;;5092218;28;20207;-66
2021/07/16 06:39:44;;;;;;;31.23;22.38;;;;;;;;;;5092137;28;20227;-65
2021/07/16 06:42:12;;;;;;;28.73;22.27;;;;;;;;;;5092948;28;20283;-65
2021/07/16 06:44:40;;;;;;;31.23;23.73;;;;;;;;;;5096012;28;20616;-64
2021/07/16 06:47:10;;;;;;;34.35;23.88;;;;;;;;;;5096217;28;20204;-64
2021/07/16 06:49:38;;;;;;;34.10;24.42;;;;;;;;;;5095858;28;20686;-66
2021/07/16 06:52:07;;;;;;;33.00;23.80;;;;;;;;;;5095458;28;20282;-65
2021/07/16 06:54:38;;;;;;;34.50;24.25;;;;;;;;;;5095563;28;20537;-64
2021/07/16 06:57:06;;;;;;;29.73;23.70;;;;;;;;;;5095943;28;20272;-66
2021/07/16 06:59:34;;;;;;;32.47;24.15;;;;;;;;;;5095453;28;20698;-63
2021/07/16 07:02:03;;;;;;;31.67;22.90;;;;;;;;;;5095904;28;20200;-64
2021/07/16 07:04:32;;;;;;;29.33;22.05;;;;;;;;;;5095829;28;20203;-65
2021/07/16 07:07:00;;;;;;;26.08;19.38;;;;;;;;;;5095131;28;20204;-62
2021/07/16 07:09:29;;;;;;;30.25;22.42;;;;;;;;;;5095720;28;20210;-62
2021/07/16 07:11:59;;;;;;;26.33;21.08;;;;;;;;;;5095770;28;20212;-63
2021/07/16 07:14:27;;;;;;;29.95;22.27;;;;;;;;;;5092599;28;20303;-63
2021/07/16 07:16:55;;;;;;;23.48;19.35;;;;;;;;;;5093152;28;20295;-68
2021/07/16 07:19:24;;;;;;;26.35;21.33;;;;;;;;;;5080077;28;20750;-63
2021/07/16 07:21:52;;;;;;;26.95;21.10;;;;;;;;;;5071858;28;20836;-63
2021/07/16 07:24:20;;;;;;;26.45;20.33;;;;;;;;;;5071957;28;20241;-63
2021/07/16 07:26:48;;;;;;;26.25;21.08;;;;;;;;;;5071998;28;20200;-63
2021/07/16 07:29:18;;;;;;;27.20;21.75;;;;;;;;;;5072048;28;20291;-63
2021/07/16 07:31:46;;;;;;;28.83;22.73;;;;;;;;;;5072310;28;20197;-62
2021/07/16 07:34:14;;;;;;;27.58;19.70;;;;;;;;;;5071982;28;20211;-62
2021/07/16 07:36:47;;;;;;;24.33;19.98;;;;;;;;;;5072969;28;20243;-63
2021/07/16 07:39:15;;;;;;;28.52;22.08;;;;;;;;;;5071797;28;20196;-61
2021/07/16 07:41:46;;;;;;;32.17;23.52;;;;;;;;;;5071817;28;20205;-65
2021/07/16 07:44:14;;;;;;;36.42;25.58;;;;;;;;;;5072076;28;20192;-61
2021/07/16 07:46:44;;;;;;;32.88;24.98;;;;;;;;;;5072048;28;20203;-61
2021/07/16 07:49:13;;;;;;;32.20;23.67;;;;;;;;;;5071952;28;20208;-64
2021/07/16 07:51:42;;;;;;;31.63;24.00;;;;;;;;;;5083350;28;20556;-63
2021/07/16 07:54:10;;;;;;;32.35;23.50;;;;;;;;;;5091451;28;20295;-63
2021/07/16 07:56:39;;;;;;;29.65;21.42;;;;;;;;;;5091598;28;20200;-62
2021/07/16 07:59:07;;;;;;;31.15;22.85;;;;;;;;;;5091715;28;20304;-61
2021/07/16 08:01:36;;;;;;;31.25;23.73;;;;;;;;;;5091570;28;20223;-62
2021/07/16 08:04:06;;;;;;;29.92;23.17;;;;;;;;;;5091572;28;20640;-66
2021/07/16 08:06:38;;;;;;;27.70;20.58;;;;;;;;;;5087815;28;20235;-64
2021/07/16 08:09:07;;;;;;;33.30;23.13;;;;;;;;;;5089170;28;20223;-64
2021/07/16 08:11:35;;;;;;;26.85;20.75;;;;;;;;;;5093454;28;20291;-64
2021/07/16 08:14:04;;;;;;;29.10;20.90;;;;;;;;;;5094066;28;20199;-64
2021/07/16 08:16:32;;;;;;;25.15;21.52;;;;;;;;;;5094546;28;20203;-62
2021/07/16 08:19:00;;;;;;;21.42;17.70;;;;;;;;;;5090049;28;20585;-61
2021/07/16 08:21:30;;;;;;;27.05;20.05;;;;;;;;;;5091055;28;20281;-61
2021/07/16 08:23:58;;;;;;;20.45;18.25;;;;;;;;;;5090646;28;20303;-61
2021/07/16 08:26:26;;;;;;;23.45;18.83;;;;;;;;;;5091031;28;20200;-62
2021/07/16 08:28:54;;;;;;;25.45;18.83;;;;;;;;;;5090572;28;20674;-62
2021/07/16 08:31:24;;;;;;;20.55;17.42;;;;;;;;;;5090963;28;20287;-61
2021/07/16 08:33:52;;;;;;;19.58;16.55;;;;;;;;;;5090393;28;20664;-65
2021/07/16 08:36:21;;;;;;;19.55;17.25;;;;;;;;;;5090480;28;20228;-65
2021/07/16 08:38:50;;;;;;;18.15;16.10;;;;;;;;;;5090520;28;20243;-66
2021/07/16 08:41:21;;;;;;;18.10;15.02;;;;;;;;;;5090767;28;20200;-60
2021/07/16 08:43:50;;;;;;;18.20;16.13;;;;;;;;;;5077085;28;20291;-62
2021/07/16 08:46:18;;;;;;;15.95;14.25;;;;;;;;;;5070059;28;20580;-62
2021/07/16 08:48:48;;;;;;;17.40;15.48;;;;;;;;;;5070389;28;20204;-62
2021/07/16 08:51:18;;;;;;;19.33;16.27;;;;;;;;;;5069358;28;20312;-62
2021/07/16 08:53:48;;;;;;;17.75;14.95;;;;;;;;;;5088908;28;20208;-61
2021/07/16 08:56:17;;;;;;;22.52;17.42;;;;;;;;;;5090631;28;20291;-63
2021/07/16 08:58:45;;;;;;;17.40;15.60;;;;;;;;;;5089968;28;20210;-63
2021/07/16 09:01:14;;;;;;;18.45;16.35;;;;;;;;;;5090057;28;20793;-59
2021/07/16 09:03:56;;;;;;;21.70;17.52;;;;;;;;;;5090109;28;20211;-66
2021/07/16 09:06:39;;;;;;;18.52;15.57;;;;;;;;;;5089297;28;20246;-63
2021/07/16 09:09:07;;;;;;;21.33;17.50;;;;;;;;;;5089698;28;20206;-62
2021/07/16 09:11:40;;;;;;;18.90;15.75;;;;;;;;;;5089781;28;20299;-64
2021/07/16 09:14:08;;;;;;;21.85;17.25;;;;;;;;;;5090013;28;20272;-62
2021/07/16 09:16:36;;;;;;;23.25;19.27;;;;;;;;;;5089790;28;20295;-63
2021/07/16 09:19:05;;;;;;;23.05;19.08;;;;;;;;;;5089839;28;20230;-62
2021/07/16 09:21:33;;;;;;;22.25;19.10;;;;;;;;;;5089636;28;20219;-62
2021/07/16 09:24:05;;;;;;;24.85;18.88;;;;;;;;;;5089629;28;20689;-62
2021/07/16 09:26:38;;;;;;;25.17;19.92;;;;;;;;;;5089550;28;20220;-62
2021/07/16 09:29:08;;;;;;;24.42;17.88;;;;;;;;;;5090114;28;20184;-61
2021/07/16 09:31:40;;;;;;;20.65;17.60;;;;;;;;;;5089581;28;20200;-61
2021/07/16 09:34:11;;;;;;;19.52;16.50;;;;;;;;;;5089752;28;20184;-60
2021/07/16 09:36:39;;;;;;;21.58;16.70;;;;;;;;;;5089219;28;20199;-61
2021/07/16 09:39:09;;;;;;;19.48;16.45;;;;;;;;;;5089485;28;20286;-63
2021/07/16 09:41:48;;;;;;;19.98;16.35;;;;;;;;;;5089417;28;20572;-64
2021/07/16 09:44:28;;;;;;;17.70;15.73;;;;;;;;;;5089428;28;20270;-64
2021/07/16 09:47:10;;;;;;;18.80;16.10;;;;;;;;;;5090390;28;20184;-64
2021/07/16 09:49:38;;;;;;;18.98;15.73;;;;;;;;;;5086712;28;20196;-64
2021/07/16 09:52:07;;;;;;;15.27;13.68;;;;;;;;;;5087329;28;20734;-63
2021/07/16 09:54:36;;;;;;;15.60;13.73;;;;;;;;;;5089564;28;20591;-63
2021/07/16 09:57:04;;;;;;;14.35;12.75;;;;;;;;;;5089372;28;20206;-63
2021/07/16 09:59:34;;;;;;;13.90;12.40;;;;;;;;;;5089251;28;20291;-64
2021/07/16 10:02:03;;;;;;;16.60;14.00;;;;;;;;;;5088881;28;20220;-64
2021/07/16 10:04:33;;;;;;;14.98;13.13;;;;;;;;;;5088982;28;20204;-62
2021/07/16 10:07:02;;;;;;;15.70;13.20;;;;;;;;;;5088914;28;20200;-63
2021/07/16 10:09:31;;;;;;;14.88;12.38;;;;;;;;;;5089080;28;20223;-64
2021/07/16 10:12:01;;;;;;;13.20;11.75;;;;;;;;;;5089280;28;20222;-63
2021/07/16 10:14:30;;;;;;;15.35;12.15;;;;;;;;;;5089075;28;20531;-62
2021/07/16 10:16:59;;;;;;;17.77;12.80;;;;;;;;;;5089243;28;20203;-63
2021/07/16 10:19:28;;;;;;;13.85;12.35;;;;;;;;;;5092716;28;20191;-62
2021/07/16 10:21:57;;;;;;;13.35;11.90;;;;;;;;;;5080769;28;20224;-63
2021/07/16 10:24:26;;;;;;;13.48;11.82;;;;;;;;;;5081832;28;20403;-64
2021/07/16 10:27:15;;;;;;;13.45;12.02;;;;;;;;;;5090945;28;20669;-64
2021/07/16 10:29:45;;;;;;;14.40;11.85;;;;;;;;;;5092915;28;20204;-63
2021/07/16 10:32:35;;;;;;;15.27;12.00;;;;;;;;;;5092467;28;20204;-64
2021/07/16 10:35:14;;;;;;;13.23;11.80;;;;;;;;;;5091912;28;20204;-63
2021/07/16 10:37:42;;;;;;;12.35;10.98;;;;;;;;;;5092388;28;20646;-63
2021/07/16 10:40:11;;;;;;;12.25;10.95;;;;;;;;;;5092246;28;20642;-64
2021/07/16 10:42:44;;;;;;;11.60;10.23;;;;;;;;;;5093050;28;20574;-61
2021/07/16 10:45:13;;;;;;;13.65;12.20;;;;;;;;;;5092921;28;20180;-64
2021/07/16 10:47:45;;;;;;;13.93;12.20;;;;;;;;;;5092682;28;20246;-64
2021/07/16 10:50:14;;;;;;;13.40;12.00;;;;;;;;;;5092457;28;20192;-64
2021/07/16 10:52:44;;;;;;;13.25;11.65;;;;;;;;;;5092701;28;20203;-60
2021/07/16 10:55:12;;;;;;;14.93;13.23;;;;;;;;;;5092058;28;20200;-58
2021/07/16 10:57:41;;;;;;;14.88;12.55;;;;;;;;;;5092579;28;20210;-60
2021/07/16 11:00:10;;;;;;;13.85;12.40;;;;;;;;;;5092632;28;20204;-60
2021/07/16 11:02:43;;;;;;;16.00;13.45;;;;;;;;;;5092656;28;20247;-60
2021/07/16 11:05:31;;;;;;;14.25;12.75;;;;;;;;;;5092581;28;20188;-61
2021/07/16 11:07:59;;;;;;;18.08;13.43;;;;;;;;;;5091945;28;20635;-60
2021/07/16 11:10:46;;;;;;;18.98;14.82;;;;;;;;;;5092551;28;20565;-61
2021/07/16 11:13:34;;;;;;;14.85;13.25;;;;;;;;;;5092010;28;20195;-63
2021/07/16 11:16:37;;;;;;;14.48;12.90;;;;;;;;;;5092211;28;20185;-62
2021/07/16 11:19:17;;;;;;;13.02;11.73;;;;;;;;;;5092364;28;20199;-61
2021/07/16 11:22:15;;;;;;;14.60;13.00;;;;;;;;;;5091600;28;20235;-59
2021/07/16 11:24:46;;;;;;;15.93;12.23;;;;;;;;;;5009343;28;20237;-60
2021/07/16 11:27:17;;;;;;;16.48;13.23;;;;;;;;;;5075174;28;20227;-61
2021/07/16 11:29:47;;;;;;;13.82;11.57;;;;;;;;;;5091528;28;20181;-63
2021/07/16 11:32:17;;;;;;;13.23;11.70;;;;;;;;;;5092035;28;20192;-62
2021/07/16 11:34:54;;;;;;;13.98;12.60;;;;;;;;;;5092160;28;20192;-62
2021/07/16 11:37:23;;;;;;;14.95;12.60;;;;;;;;;;5091450;28;20279;-62
2021/07/16 11:39:53;;;;;;;12.68;11.43;;;;;;;;;;5092034;28;20291;-62
2021/07/16 11:42:21;;;;;;;13.05;11.60;;;;;;;;;;5091553;28;20322;-63
2021/07/16 11:44:49;;;;;;;13.18;11.73;;;;;;;;;;5091535;28;20195;-62
2021/07/16 11:47:18;;;;;;;11.25;10.23;;;;;;;;;;5091603;28;20274;-63
2021/07/16 11:49:47;;;;;;;12.50;11.25;;;;;;;;;;5091404;28;20287;-63
2021/07/16 11:52:18;;;;;;;11.00;9.88;;;;;;;;;;5090990;28;20223;-63
2021/07/16 11:54:46;;;;;;;11.98;10.77;;;;;;;;;;5091689;28;20180;-63
2021/07/16 11:57:16;;;;;;;14.50;11.95;;;;;;;;;;5091548;28;20288;-63
2021/07/16 11:59:48;;;;;;;13.25;11.90;;;;;;;;;;5091231;28;20210;-62
2021/07/16 12:02:17;;;;;;;12.27;11.07;;;;;;;;;;5091443;28;20226;-64
2021/07/16 12:04:46;;;;;;;11.55;10.55;;;;;;;;;;5090964;28;20230;-64
2021/07/16 12:07:15;;;;;;;12.00;10.70;;;;;;;;;;5090567;28;20558;-64
2021/07/16 12:09:45;;;;;;;12.15;11.05;;;;;;;;;;5091213;28;20299;-64
2021/07/16 12:12:19;;;;;;;11.85;10.75;;;;;;;;;;5091332;28;20192;-63
2021/07/16 12:14:48;;;;;;;11.90;10.80;;;;;;;;;;5090879;28;20204;-64
2021/07/16 12:17:17;;;;;;;13.15;11.82;;;;;;;;;;5091254;28;20200;-64
2021/07/16 12:19:46;;;;;;;11.30;10.23;;;;;;;;;;5091152;28;20207;-65
2021/07/16 12:22:15;;;;;;;11.55;10.45;;;;;;;;;;5090665;28;20216;-65
2021/07/16 12:24:45;;;;;;;11.77;10.65;;;;;;;;;;5090680;28;20299;-60
2021/07/16 12:27:14;;;;;;;11.93;10.77;;;;;;;;;;5090673;28;20291;-61
2021/07/16 12:29:42;;;;;;;11.35;10.27;;;;;;;;;;5090924;28;20204;-59
2021/07/16 12:32:11;;;;;;;12.05;10.82;;;;;;;;;;5090764;28;20200;-61
2021/07/16 12:34:46;;;;;;;14.93;12.07;;;;;;;;;;5090832;28;20215;-62
2021/07/16 12:37:16;;;;;;;11.55;10.45;;;;;;;;;;5090470;28;20202;-63
2021/07/16 12:39:46;;;;;;;12.45;11.25;;;;;;;;;;5089939;28;20191;-65
2021/07/16 12:42:17;;;;;;;12.02;10.93;;;;;;;;;;5090238;28;20910;-63
2021/07/16 12:45:06;;;;;;;12.70;11.50;;;;;;;;;;5090309;28;20275;-62
2021/07/16 12:47:34;;;;;;;12.05;10.90;;;;;;;;;;5089991;28;20203;-63
2021/07/16 12:50:07;;;;;;;13.90;12.52;;;;;;;;;;5089893;28;20254;-62
2021/07/16 12:52:35;;;;;;;14.43;12.93;;;;;;;;;;5089409;28;20687;-63
2021/07/16 12:55:18;;;;;;;14.38;12.88;;;;;;;;;;5090423;28;20286;-63
2021/07/16 12:57:47;;;;;;;13.60;12.10;;;;;;;;;;5090295;28;20223;-63
2021/07/16 13:00:16;;;;;;;14.35;12.65;;;;;;;;;;5089844;28;20204;-64
2021/07/16 13:02:46;;;;;;;13.93;12.48;;;;;;;;;;5090248;28;20311;-63
2021/07/16 13:05:27;;;;;;;14.05;12.15;;;;;;;;;;5090549;28;20189;-62
2021/07/16 13:08:17;;;;;;;14.73;12.70;;;;;;;;;;5094342;28;20242;-64
2021/07/16 13:10:52;;;;;;;13.27;11.98;;;;;;;;;;5095922;28;20238;-63
2021/07/16 13:13:21;;;;;;;13.48;12.15;;;;;;;;;;5092317;28;20194;-62
2021/07/16 13:16:08;;;;;;;12.75;11.55;;;;;;;;;;5089472;28;20664;-62
2021/07/16 13:18:36;;;;;;;11.15;10.15;;;;;;;;;;5090098;28;20203;-63
2021/07/16 13:21:05;;;;;;;12.50;11.35;;;;;;;;;;5089388;28;20742;-63
2021/07/16 13:23:35;;;;;;;11.85;10.77;;;;;;;;;;5089553;28;20215;-64
2021/07/16 13:26:09;;;;;;;12.70;11.25;;;;;;;;;;5089904;28;20192;-62
2021/07/16 13:28:38;;;;;;;11.30;10.15;;;;;;;;;;5090062;28;20192;-63
2021/07/16 13:31:07;;;;;;;10.43;9.43;;;;;;;;;;5089719;28;20208;-62
2021/07/16 13:33:35;;;;;;;10.90;9.80;;;;;;;;;;5089666;28;20203;-62
2021/07/16 13:36:03;;;;;;;10.95;9.70;;;;;;;;;;5089401;28;20294;-63
2021/07/16 13:38:33;;;;;;;10.90;9.82;;;;;;;;;;5089642;28;20255;-63
2021/07/16 13:41:01;;;;;;;11.40;10.10;;;;;;;;;;5089193;28;20645;-63
2021/07/16 13:43:31;;;;;;;12.23;10.95;;;;;;;;;;5089377;28;20646;-62
2021/07/16 13:46:00;;;;;;;12.27;11.02;;;;;;;;;;5089696;28;20203;-63
2021/07/16 13:48:28;;;;;;;15.38;11.45;;;;;;;;;;5089416;28;20208;-63
2021/07/16 13:50:56;;;;;;;12.82;11.57;;;;;;;;;;5088998;28;20319;-64
2021/07/16 13:53:24;;;;;;;13.05;11.70;;;;;;;;;;5089090;28;20202;-64
2021/07/16 13:55:53;;;;;;;13.55;12.10;;;;;;;;;;5089308;28;20201;-61
2021/07/16 13:58:21;;;;;;;15.07;13.57;;;;;;;;;;5089044;28;20695;-61
2021/07/16 14:00:50;;;;;;;15.80;14.18;;;;;;;;;;5089682;28;20310;-63
2021/07/16 14:03:19;;;;;;;14.82;13.38;;;;;;;;;;5089189;28;20796;-63
2021/07/16 14:05:47;;;;;;;16.25;13.48;;;;;;;;;;5089424;28;20199;-64
2021/07/16 14:08:15;;;;;;;16.13;13.82;;;;;;;;;;5088959;28;20290;-63
2021/07/16 14:10:43;;;;;;;15.05;13.32;;;;;;;;;;5089133;28;20785;-62
2021/07/16 14:13:12;;;;;;;15.15;13.60;;;;;;;;;;5089471;28;20753;-63
2021/07/16 14:15:40;;;;;;;15.68;13.20;;;;;;;;;;5088925;28;20671;-65
2021/07/16 14:18:10;;;;;;;14.18;12.70;;;;;;;;;;5088879;28;20667;-62
2021/07/16 14:20:38;;;;;;;15.00;13.43;;;;;;;;;;5089389;28;20287;-67
2021/07/16 14:23:06;;;;;;;14.23;12.77;;;;;;;;;;5088158;28;20249;-62
2021/07/16 14:25:34;;;;;;;15.27;12.65;;;;;;;;;;5089856;28;20281;-66
2021/07/16 14:28:03;;;;;;;13.95;12.55;;;;;;;;;;5092289;28;20216;-64
2021/07/16 14:30:31;;;;;;;13.20;11.85;;;;;;;;;;5092429;28;20290;-64
2021/07/16 14:32:59;;;;;;;13.48;11.50;;;;;;;;;;5092801;28;20196;-64
2021/07/16 14:35:29;;;;;;;12.80;11.30;;;;;;;;;;5092205;28;20743;-65
2021/07/16 14:37:57;;;;;;;12.85;11.50;;;;;;;;;;5092400;28;20200;-65
2021/07/16 14:40:26;;;;;;;10.82;9.80;;;;;;;;;;5092568;28;20291;-67